createdAt,value
2018-12-16T00:00:40.424Z,100
2018-12-16T00:01:42.456Z,100
2018-12-16T00:02:44.491Z,100
2018-12-16T00:03:46.507Z,100
2018-12-16T00:04:50.964Z,100
2018-12-16T00:05:52.980Z,100
2018-12-16T00:06:55.024Z,100
2018-12-16T00:07:57.034Z,100
2018-12-16T00:08:59.061Z,100
2018-12-16T00:10:01.086Z,100
2018-12-16T00:11:03.099Z,100
2018-12-16T00:12:05.136Z,100
2018-12-16T00:13:07.444Z,100
2018-12-16T00:14:09.473Z,100
2018-12-16T00:15:11.476Z,100
2018-12-16T00:16:13.516Z,100
2018-12-16T00:17:15.530Z,100
2018-12-16T00:18:17.545Z,100
2018-12-16T00:19:19.607Z,100
2018-12-16T00:20:21.622Z,100
2018-12-16T00:21:23.651Z,100
2018-12-16T00:22:31.042Z,100
2018-12-16T00:23:33.060Z,100
2018-12-16T00:24:35.071Z,100
2018-12-16T00:25:37.096Z,100
2018-12-16T00:26:39.110Z,100
2018-12-16T00:27:41.167Z,100
2018-12-16T00:28:43.282Z,100
2018-12-16T00:29:45.299Z,100
2018-12-16T00:30:47.320Z,100
2018-12-16T00:31:49.355Z,100
2018-12-16T00:32:51.375Z,100
2018-12-16T00:33:53.671Z,100
2018-12-16T00:34:55.685Z,100
2018-12-16T00:35:57.708Z,100
2018-12-16T00:36:59.731Z,100
2018-12-16T00:38:01.755Z,100
2018-12-16T00:39:04.431Z,100
2018-12-16T00:40:06.532Z,100
2018-12-16T00:41:08.818Z,100
2018-12-16T00:42:10.838Z,100
2018-12-16T00:43:12.863Z,100
2018-12-16T00:44:14.877Z,100
2018-12-16T00:45:16.907Z,100
2018-12-16T00:46:18.926Z,100
2018-12-16T00:47:21.238Z,100
2018-12-16T00:48:23.239Z,100
2018-12-16T00:49:25.273Z,100
2018-12-16T00:50:27.289Z,100
2018-12-16T00:51:29.306Z,100
2018-12-16T00:52:37.393Z,100
2018-12-16T00:53:39.473Z,100
2018-12-16T00:54:41.782Z,100
2018-12-16T00:55:44.127Z,100
2018-12-16T00:56:46.152Z,100
2018-12-16T00:57:48.161Z,100
2018-12-16T00:58:50.186Z,100
2018-12-16T00:59:52.489Z,100
2018-12-16T01:00:54.534Z,100
2018-12-16T01:01:56.567Z,100
2018-12-16T01:02:58.580Z,100
2018-12-16T01:04:00.595Z,100
2018-12-16T01:05:02.633Z,100
2018-12-16T01:06:04.726Z,100
2018-12-16T01:07:07.027Z,100
2018-12-16T01:08:09.049Z,100
2018-12-16T01:09:11.837Z,100
2018-12-16T01:10:13.854Z,100
2018-12-16T01:11:15.871Z,100
2018-12-16T01:12:17.902Z,100
2018-12-16T01:13:19.919Z,100
2018-12-16T01:14:21.926Z,100
2018-12-16T01:15:24.246Z,100
2018-12-16T01:16:26.276Z,100
2018-12-16T01:17:28.675Z,100
2018-12-16T01:18:30.711Z,100
2018-12-16T01:19:32.729Z,100
2018-12-16T01:20:34.761Z,100
2018-12-16T01:21:36.780Z,100
2018-12-16T01:22:44.455Z,100
2018-12-16T01:23:46.476Z,100
2018-12-16T01:24:48.495Z,100
2018-12-16T01:25:50.521Z,100
2018-12-16T01:26:52.538Z,100
2018-12-16T01:27:54.843Z,100
2018-12-16T01:28:56.872Z,100
2018-12-16T01:29:58.899Z,100
2018-12-16T01:31:00.908Z,100
2018-12-16T01:32:02.985Z,100
2018-12-16T01:33:05.594Z,100
2018-12-16T01:34:07.615Z,100
2018-12-16T01:35:09.696Z,100
2018-12-16T01:36:11.716Z,100
2018-12-16T01:37:13.743Z,100
2018-12-16T01:38:15.778Z,100
2018-12-16T01:39:17.797Z,100
2018-12-16T01:40:19.811Z,100
2018-12-16T01:41:21.912Z,100
2018-12-16T01:42:23.924Z,100
2018-12-16T01:43:25.947Z,100
2018-12-16T01:44:27.966Z,100
2018-12-16T01:45:30.269Z,100
2018-12-16T01:46:32.277Z,100
2018-12-16T01:47:34.381Z,100
2018-12-16T01:48:36.405Z,100
2018-12-16T01:49:38.728Z,100
2018-12-16T01:50:40.744Z,100
2018-12-16T01:51:42.785Z,100
2018-12-16T01:52:51.422Z,100
2018-12-16T01:53:53.444Z,100
2018-12-16T01:54:55.456Z,100
2018-12-16T01:55:57.491Z,100
2018-12-16T01:56:59.507Z,100
2018-12-16T01:58:01.800Z,100
2018-12-16T01:59:03.824Z,100
2018-12-16T02:00:06.113Z,100
2018-12-16T02:01:08.139Z,100
2018-12-16T02:02:10.454Z,100
2018-12-16T02:03:12.476Z,100
2018-12-16T02:04:14.482Z,100
2018-12-16T02:05:16.894Z,100
2018-12-16T02:06:18.914Z,100
2018-12-16T02:07:20.927Z,100
2018-12-16T02:08:22.953Z,100
2018-12-16T02:09:24.991Z,100
2018-12-16T02:10:27.002Z,100
2018-12-16T02:11:29.421Z,100
2018-12-16T02:12:31.434Z,100
2018-12-16T02:13:33.448Z,100
2018-12-16T02:14:35.468Z,100
2018-12-16T02:15:37.487Z,100
2018-12-16T02:16:40.453Z,100
2018-12-16T02:17:42.476Z,100
2018-12-16T02:18:44.500Z,100
2018-12-16T02:19:46.503Z,100
2018-12-16T02:20:48.535Z,100
2018-12-16T02:21:50.899Z,100
2018-12-16T02:22:58.017Z,100
2018-12-16T02:24:00.044Z,100
2018-12-16T02:25:02.343Z,100
2018-12-16T02:26:04.362Z,100
2018-12-16T02:27:06.383Z,100
2018-12-16T02:28:08.693Z,100
2018-12-16T02:29:10.703Z,100
2018-12-16T02:30:12.735Z,100
2018-12-16T02:31:14.767Z,100
2018-12-16T02:32:16.778Z,100
2018-12-16T02:33:19.194Z,100
2018-12-16T02:34:21.513Z,100
2018-12-16T02:35:23.542Z,100
2018-12-16T02:36:25.849Z,100
2018-12-16T02:37:27.897Z,100
2018-12-16T02:38:29.914Z,100
2018-12-16T02:39:31.937Z,100
2018-12-16T02:40:34.356Z,100
2018-12-16T02:41:36.368Z,100
2018-12-16T02:42:38.455Z,100
2018-12-16T02:43:40.484Z,100
2018-12-16T02:44:42.522Z,100
2018-12-16T02:45:44.548Z,100
2018-12-16T02:46:46.584Z,100
2018-12-16T02:47:48.600Z,100
2018-12-16T02:48:50.640Z,100
2018-12-16T02:49:52.659Z,100
2018-12-16T02:50:54.676Z,100
2018-12-16T02:51:56.701Z,100
2018-12-16T02:53:05.591Z,100
2018-12-16T02:54:07.615Z,100
2018-12-16T02:55:09.641Z,100
2018-12-16T02:56:12.395Z,100
2018-12-16T02:57:14.425Z,100
2018-12-16T02:58:16.755Z,100
2018-12-16T02:59:18.802Z,100
2018-12-16T03:00:21.215Z,100
2018-12-16T03:01:23.245Z,100
2018-12-16T03:02:25.283Z,100
2018-12-16T03:03:27.679Z,100
2018-12-16T03:04:29.976Z,100
2018-12-16T03:05:32.027Z,100
2018-12-16T03:06:34.046Z,100
2018-12-16T03:07:36.373Z,100
2018-12-16T03:08:38.395Z,100
2018-12-16T03:09:41.093Z,100
2018-12-16T03:10:43.128Z,100
2018-12-16T03:11:45.141Z,100
2018-12-16T03:12:47.469Z,100
2018-12-16T03:13:49.800Z,100
2018-12-16T03:14:51.819Z,100
2018-12-16T03:15:53.854Z,100
2018-12-16T03:16:55.897Z,100
2018-12-16T03:17:58.185Z,100
2018-12-16T03:19:00.214Z,100
2018-12-16T03:20:02.632Z,100
2018-12-16T03:21:04.654Z,100
2018-12-16T03:22:06.696Z,100
2018-12-16T03:23:13.640Z,100
2018-12-16T03:24:15.664Z,100
2018-12-16T03:25:17.972Z,100
2018-12-16T03:26:20.010Z,100
2018-12-16T03:27:22.037Z,100
2018-12-16T03:28:24.363Z,100
2018-12-16T03:29:26.481Z,100
2018-12-16T03:30:28.512Z,100
2018-12-16T03:31:30.557Z,100
2018-12-16T03:32:32.883Z,100
2018-12-16T03:33:34.931Z,100
2018-12-16T03:34:37.324Z,100
2018-12-16T03:35:39.360Z,100
2018-12-16T03:36:41.667Z,100
2018-12-16T03:37:43.684Z,100
2018-12-16T03:38:45.711Z,100
2018-12-16T03:39:48.010Z,100
2018-12-16T03:40:50.034Z,100
2018-12-16T03:41:52.061Z,100
2018-12-16T03:42:54.369Z,100
2018-12-16T03:43:56.682Z,100
2018-12-16T03:44:58.719Z,100
2018-12-16T03:46:00.745Z,100
2018-12-16T03:47:03.058Z,100
2018-12-16T03:48:05.086Z,100
2018-12-16T03:49:07.399Z,100
2018-12-16T03:50:09.413Z,100
2018-12-16T03:51:11.461Z,100
2018-12-16T03:52:13.487Z,100
2018-12-16T03:53:21.109Z,100
2018-12-16T03:54:23.145Z,100
2018-12-16T03:55:25.161Z,100
2018-12-16T03:56:27.474Z,100
2018-12-16T03:57:30.061Z,100
2018-12-16T03:58:32.103Z,100
2018-12-16T03:59:34.114Z,100
2018-12-16T04:00:36.741Z,100
2018-12-16T04:01:38.759Z,100
2018-12-16T04:02:41.447Z,100
2018-12-16T04:03:44.140Z,100
2018-12-16T04:04:46.158Z,100
2018-12-16T04:05:48.588Z,100
2018-12-16T04:06:51.180Z,100
2018-12-16T04:07:53.236Z,100
2018-12-16T04:08:55.252Z,100
2018-12-16T04:09:57.284Z,100
2018-12-16T04:10:59.312Z,100
2018-12-16T04:12:01.331Z,100
2018-12-16T04:13:03.654Z,100
2018-12-16T04:14:06.057Z,100
2018-12-16T04:15:08.095Z,100
2018-12-16T04:16:10.111Z,100
2018-12-16T04:17:12.142Z,100
2018-12-16T04:18:14.153Z,100
2018-12-16T04:19:16.467Z,100
2018-12-16T04:20:18.820Z,100
2018-12-16T04:21:21.140Z,100
2018-12-16T04:22:23.162Z,100
2018-12-16T04:23:28.434Z,100
2018-12-16T04:24:30.475Z,100
2018-12-16T04:25:32.519Z,100
2018-12-16T04:26:34.927Z,100
2018-12-16T04:27:36.943Z,100
2018-12-16T04:28:39.245Z,100
2018-12-16T04:29:41.270Z,100
2018-12-16T04:30:43.295Z,100
2018-12-16T04:31:45.743Z,100
2018-12-16T04:32:47.757Z,100
2018-12-16T04:33:49.806Z,100
2018-12-16T04:34:51.834Z,100
2018-12-16T04:35:53.853Z,100
2018-12-16T04:36:55.879Z,100
2018-12-16T04:37:57.892Z,100
2018-12-16T04:38:59.967Z,100
2018-12-16T04:40:02.283Z,100
2018-12-16T04:41:04.589Z,100
2018-12-16T04:42:06.989Z,100
2018-12-16T04:43:09.018Z,100
2018-12-16T04:44:11.045Z,100
2018-12-16T04:45:13.334Z,100
2018-12-16T04:46:15.372Z,100
2018-12-16T04:47:18.058Z,100
2018-12-16T04:48:20.087Z,100
2018-12-16T04:49:22.492Z,100
2018-12-16T04:50:24.526Z,100
2018-12-16T04:51:26.823Z,100
2018-12-16T04:52:28.848Z,100
2018-12-16T04:53:37.831Z,100
2018-12-16T04:54:39.878Z,100
2018-12-16T04:55:41.898Z,100
2018-12-16T04:56:43.927Z,100
2018-12-16T04:57:45.947Z,100
2018-12-16T04:58:48.283Z,100
2018-12-16T04:59:50.605Z,100
2018-12-16T05:00:52.907Z,100
2018-12-16T05:01:55.225Z,100
2018-12-16T05:02:57.529Z,100
2018-12-16T05:03:59.544Z,100
2018-12-16T05:05:02.525Z,100
2018-12-16T05:06:04.571Z,100
2018-12-16T05:07:06.583Z,100
2018-12-16T05:08:08.905Z,100
2018-12-16T05:09:10.992Z,100
2018-12-16T05:10:13.016Z,100
2018-12-16T05:11:15.435Z,100
2018-12-16T05:12:17.487Z,100
2018-12-16T05:13:19.515Z,100
2018-12-16T05:14:22.092Z,100
2018-12-16T05:15:24.125Z,100
2018-12-16T05:16:26.548Z,99
2018-12-16T05:17:28.564Z,99
2018-12-16T05:18:30.886Z,99
2018-12-16T05:19:32.895Z,99
2018-12-16T05:20:34.917Z,99
2018-12-16T05:21:37.223Z,99
2018-12-16T05:22:39.247Z,99
2018-12-16T05:23:42.990Z,98
2018-12-16T05:24:45.015Z,98
2018-12-16T05:25:47.030Z,98
2018-12-16T05:26:49.059Z,98
2018-12-16T05:27:51.084Z,98
2018-12-16T05:28:53.109Z,98
2018-12-16T05:29:55.122Z,98
2018-12-16T05:30:57.158Z,98
2018-12-16T05:31:59.188Z,98
2018-12-16T05:33:01.205Z,98
2018-12-16T05:34:03.617Z,98
2018-12-16T05:35:05.913Z,98
2018-12-16T05:36:08.328Z,98
2018-12-16T05:37:10.409Z,98
2018-12-16T05:38:12.722Z,98
2018-12-16T05:39:15.025Z,98
2018-12-16T05:40:17.034Z,98
2018-12-16T05:41:19.345Z,98
2018-12-16T05:42:21.379Z,98
2018-12-16T05:43:23.388Z,98
2018-12-16T05:44:25.411Z,99
2018-12-16T05:45:27.727Z,98
2018-12-16T05:46:29.807Z,98
2018-12-16T05:47:31.834Z,98
2018-12-16T05:48:33.868Z,98
2018-12-16T05:49:35.896Z,98
2018-12-16T05:50:37.916Z,97
2018-12-16T05:51:39.951Z,97
2018-12-16T05:52:41.960Z,97
2018-12-16T05:53:49.593Z,97
2018-12-16T05:54:51.618Z,97
2018-12-16T05:55:53.650Z,97
2018-12-16T05:56:55.657Z,96
2018-12-16T05:57:57.959Z,96
2018-12-16T05:58:59.984Z,96
2018-12-16T06:00:02.006Z,96
2018-12-16T06:01:04.421Z,95
2018-12-16T06:02:06.445Z,95
2018-12-16T06:03:08.740Z,95
2018-12-16T06:04:10.767Z,95
2018-12-16T06:05:12.781Z,94
2018-12-16T06:06:15.083Z,94
2018-12-16T06:07:17.385Z,94
2018-12-16T06:08:19.690Z,94
2018-12-16T06:09:21.719Z,94
2018-12-16T06:10:23.739Z,94
2018-12-16T06:11:25.763Z,94
2018-12-16T06:12:27.771Z,93
2018-12-16T06:13:29.800Z,93
2018-12-16T06:14:31.823Z,93
2018-12-16T06:15:33.868Z,93
2018-12-16T06:16:36.627Z,92
2018-12-16T06:17:39.039Z,92
2018-12-16T06:18:41.056Z,92
2018-12-16T06:19:43.360Z,92
2018-12-16T06:20:45.367Z,93
2018-12-16T06:21:47.678Z,93
2018-12-16T06:22:49.694Z,92
2018-12-16T06:23:56.614Z,92
2018-12-16T06:24:58.638Z,92
2018-12-16T06:26:00.654Z,92
2018-12-16T06:27:03.070Z,92
2018-12-16T06:28:05.094Z,91
2018-12-16T06:29:07.396Z,91
2018-12-16T06:30:09.409Z,92
2018-12-16T06:31:11.438Z,91
2018-12-16T06:32:13.447Z,91
2018-12-16T06:33:15.465Z,92
2018-12-16T06:34:17.490Z,91
2018-12-16T06:35:19.505Z,91
2018-12-16T06:36:21.537Z,91
2018-12-16T06:37:23.567Z,91
2018-12-16T06:38:25.589Z,91
2018-12-16T06:39:27.608Z,91
2018-12-16T06:40:29.914Z,91
2018-12-16T06:41:31.970Z,91
2018-12-16T06:42:33.998Z,92
2018-12-16T06:43:36.027Z,91
2018-12-16T06:44:38.050Z,91
2018-12-16T06:45:40.058Z,90
2018-12-16T06:46:42.178Z,90
2018-12-16T06:47:44.583Z,90
2018-12-16T06:48:46.602Z,90
2018-12-16T06:49:48.634Z,90
2018-12-16T06:50:50.642Z,90
2018-12-16T06:51:52.661Z,90
2018-12-16T06:52:54.682Z,90
2018-12-16T06:54:03.590Z,90
2018-12-16T06:55:05.611Z,90
2018-12-16T06:56:08.224Z,90
2018-12-16T06:57:10.269Z,90
2018-12-16T06:58:12.310Z,90
2018-12-16T06:59:14.323Z,90
2018-12-16T07:00:16.731Z,89
2018-12-16T07:01:18.755Z,89
2018-12-16T07:02:20.771Z,88
2018-12-16T07:03:22.790Z,88
2018-12-16T07:04:24.825Z,88
2018-12-16T07:05:26.846Z,88
2018-12-16T07:06:28.855Z,88
2018-12-16T07:07:30.876Z,88
2018-12-16T07:08:32.895Z,87
2018-12-16T07:09:34.913Z,87
2018-12-16T07:10:36.971Z,88
2018-12-16T07:11:39.015Z,86
2018-12-16T07:12:41.084Z,86
2018-12-16T07:13:43.446Z,86
2018-12-16T07:14:45.488Z,85
2018-12-16T07:15:47.617Z,86
2018-12-16T07:16:49.995Z,85
2018-12-16T07:17:52.314Z,84
2018-12-16T07:18:54.389Z,84
2018-12-16T07:19:56.448Z,83
2018-12-16T07:20:58.788Z,82
2018-12-16T07:22:00.862Z,82
2018-12-16T07:23:03.257Z,81
2018-12-16T07:24:10.227Z,80
2018-12-16T07:25:12.283Z,80
2018-12-16T07:26:14.326Z,80
2018-12-16T07:27:16.404Z,80
2018-12-16T07:28:18.486Z,79
2018-12-16T07:29:20.965Z,79
2018-12-16T07:30:23.064Z,78
2018-12-16T07:31:25.492Z,78
2018-12-16T07:32:27.566Z,79
2018-12-16T07:33:29.659Z,78
2018-12-16T07:34:31.696Z,78
2018-12-16T07:35:33.817Z,78
2018-12-16T07:36:35.877Z,78
2018-12-16T07:37:38.371Z,77
2018-12-16T07:38:40.443Z,78
2018-12-16T07:39:42.532Z,78
2018-12-16T07:40:44.859Z,78
2018-12-16T07:41:47.564Z,78
2018-12-16T07:42:49.927Z,77
2018-12-16T07:43:51.955Z,77
2018-12-16T07:44:54.382Z,76
2018-12-16T07:45:56.771Z,76
2018-12-16T07:46:59.412Z,76
2018-12-16T07:48:01.515Z,76
2018-12-16T07:49:03.959Z,76
2018-12-16T07:50:06.713Z,76
2018-12-16T07:51:08.819Z,76
2018-12-16T07:52:10.925Z,76
2018-12-16T07:53:12.980Z,76
2018-12-16T07:54:17.126Z,75
2018-12-16T07:55:19.173Z,75
2018-12-16T07:56:21.238Z,75
2018-12-16T07:57:23.877Z,75
2018-12-16T07:58:25.957Z,75
2018-12-16T07:59:28.313Z,75
2018-12-16T08:00:30.369Z,75
2018-12-16T08:01:32.757Z,75
2018-12-16T08:02:34.845Z,75
2018-12-16T08:03:37.166Z,75
2018-12-16T08:04:39.580Z,75
2018-12-16T08:05:41.598Z,75
2018-12-16T08:06:43.709Z,75
2018-12-16T08:07:46.164Z,76
2018-12-16T08:08:48.462Z,76
2018-12-16T08:09:50.471Z,76
2018-12-16T08:10:52.494Z,76
2018-12-16T08:11:54.803Z,76
2018-12-16T08:12:57.103Z,76
2018-12-16T08:13:59.109Z,75
2018-12-16T08:15:01.130Z,75
2018-12-16T08:16:03.472Z,75
2018-12-16T08:17:05.489Z,75
2018-12-16T08:18:07.786Z,75
2018-12-16T08:19:09.810Z,75
2018-12-16T08:20:11.827Z,75
2018-12-16T08:21:14.131Z,75
2018-12-16T08:22:16.228Z,74
2018-12-16T08:23:18.531Z,75
2018-12-16T08:24:24.156Z,74
2018-12-16T08:25:26.191Z,74
2018-12-16T08:26:28.198Z,74
2018-12-16T08:27:30.221Z,74
2018-12-16T08:28:32.253Z,74
2018-12-16T08:29:34.268Z,74
2018-12-16T08:30:36.291Z,74
2018-12-16T08:31:38.401Z,74
2018-12-16T08:32:40.424Z,74
2018-12-16T08:33:42.723Z,74
2018-12-16T08:34:44.764Z,74
2018-12-16T08:35:46.783Z,74
2018-12-16T08:36:49.083Z,74
2018-12-16T08:37:51.103Z,74
2018-12-16T08:38:53.396Z,74
2018-12-16T08:39:55.432Z,74
2018-12-16T08:40:57.455Z,74
2018-12-16T08:41:59.488Z,74
2018-12-16T08:43:01.803Z,74
2018-12-16T08:44:03.825Z,74
2018-12-16T08:45:05.841Z,74
2018-12-16T08:46:07.871Z,74
2018-12-16T08:47:09.892Z,74
2018-12-16T08:48:11.909Z,74
2018-12-16T08:49:13.930Z,74
2018-12-16T08:50:17.496Z,74
2018-12-16T08:51:19.519Z,74
2018-12-16T08:52:21.541Z,74
2018-12-16T08:53:23.578Z,74
2018-12-16T08:54:31.450Z,74
2018-12-16T08:55:33.461Z,74
2018-12-16T08:56:35.479Z,74
2018-12-16T08:57:37.493Z,75
2018-12-16T08:58:39.909Z,74
2018-12-16T08:59:41.914Z,74
2018-12-16T09:00:44.324Z,74
2018-12-16T09:01:46.741Z,75
2018-12-16T09:02:48.755Z,74
2018-12-16T09:03:50.784Z,74
2018-12-16T09:04:52.803Z,74
2018-12-16T09:05:54.905Z,74
2018-12-16T09:06:56.919Z,74
2018-12-16T09:07:58.969Z,74
2018-12-16T09:09:00.991Z,74
2018-12-16T09:10:03.284Z,74
2018-12-16T09:11:05.602Z,74
2018-12-16T09:12:07.619Z,74
2018-12-16T09:13:09.642Z,74
2018-12-16T09:14:11.665Z,74
2018-12-16T09:15:14.074Z,75
2018-12-16T09:16:16.140Z,74
2018-12-16T09:17:18.203Z,75
2018-12-16T09:18:20.219Z,75
2018-12-16T09:19:22.236Z,75
2018-12-16T09:20:24.269Z,75
2018-12-16T09:21:26.281Z,75
2018-12-16T09:22:28.370Z,75
2018-12-16T09:23:30.406Z,75
2018-12-16T09:24:38.271Z,75
2018-12-16T09:25:40.292Z,75
2018-12-16T09:26:42.353Z,75
2018-12-16T09:27:44.385Z,75
2018-12-16T09:28:46.409Z,75
2018-12-16T09:29:48.428Z,76
2018-12-16T09:30:50.445Z,75
2018-12-16T09:32:00.296Z,75
2018-12-16T09:33:02.315Z,75
2018-12-16T09:34:04.336Z,75
2018-12-16T09:35:06.366Z,75
2018-12-16T09:36:08.375Z,75
2018-12-16T09:37:10.401Z,76
2018-12-16T09:38:12.420Z,75
2018-12-16T09:39:14.442Z,75
2018-12-16T09:40:16.460Z,76
2018-12-16T09:41:18.497Z,75
2018-12-16T09:42:20.512Z,76
2018-12-16T09:43:22.530Z,76
2018-12-16T09:44:24.566Z,76
2018-12-16T09:45:26.602Z,76
2018-12-16T09:46:30.201Z,76
2018-12-16T09:47:32.244Z,76
2018-12-16T09:48:34.315Z,76
2018-12-16T09:49:36.334Z,76
2018-12-16T09:50:38.642Z,76
2018-12-16T09:51:40.662Z,76
2018-12-16T09:52:42.683Z,76
2018-12-16T09:53:44.711Z,76
2018-12-16T09:54:46.726Z,76
2018-12-16T09:55:48.738Z,75
2018-12-16T09:56:50.855Z,75
2018-12-16T09:57:52.871Z,76
2018-12-16T09:58:54.888Z,76
2018-12-16T09:59:56.914Z,76
2018-12-16T10:00:58.927Z,76
2018-12-16T10:02:00.951Z,76
2018-12-16T10:03:04.926Z,76
2018-12-16T10:04:07.049Z,76
2018-12-16T10:05:09.057Z,75
2018-12-16T10:06:11.100Z,75
2018-12-16T10:07:13.126Z,75
2018-12-16T10:08:15.145Z,75
2018-12-16T10:09:17.626Z,75
2018-12-16T10:10:21.671Z,75
2018-12-16T10:11:25.417Z,75
2018-12-16T10:12:27.908Z,75
2018-12-16T10:13:30.573Z,75
2018-12-16T10:14:32.748Z,75
2018-12-16T10:15:35.097Z,75
2018-12-16T10:16:37.363Z,76
2018-12-16T10:17:39.674Z,76
2018-12-16T10:18:42.195Z,75
2018-12-16T10:19:44.692Z,76
2018-12-16T10:20:48.192Z,76
2018-12-16T10:21:50.903Z,75
2018-12-16T10:22:53.603Z,75
2018-12-16T10:23:56.360Z,76
2018-12-16T10:24:58.835Z,76
2018-12-16T10:26:01.694Z,76
2018-12-16T10:27:03.830Z,76
2018-12-16T10:28:05.951Z,76
2018-12-16T10:29:08.200Z,76
2018-12-16T10:30:10.512Z,77
2018-12-16T10:31:12.673Z,77
2018-12-16T10:32:15.255Z,76
2018-12-16T10:33:18.122Z,77
2018-12-16T10:34:20.947Z,77
2018-12-16T10:35:23.131Z,77
2018-12-16T10:36:25.970Z,77
2018-12-16T10:37:29.311Z,77
2018-12-16T10:38:32.770Z,76
2018-12-16T10:39:35.626Z,77
2018-12-16T10:40:38.235Z,77
2018-12-16T10:41:41.672Z,77
2018-12-16T10:42:44.796Z,76
2018-12-16T10:43:46.845Z,76
2018-12-16T10:44:49.411Z,76
2018-12-16T10:45:52.465Z,76
2018-12-16T10:46:59.101Z,76
2018-12-16T10:48:07.633Z,75
2018-12-16T10:49:20.190Z,75
2018-12-16T10:50:30.748Z,75
2018-12-16T10:51:36.696Z,75
2018-12-16T10:52:51.909Z,76
2018-12-16T10:54:00.403Z,75
2018-12-16T10:55:09.199Z,75
2018-12-16T10:56:12.623Z,75
2018-12-16T10:57:16.237Z,75
2018-12-16T10:58:18.369Z,75
2018-12-16T10:59:20.543Z,75
2018-12-16T11:00:23.531Z,75
2018-12-16T11:01:26.416Z,76
2018-12-16T11:02:28.936Z,76
2018-12-16T11:03:31.674Z,75
2018-12-16T11:04:33.823Z,76
2018-12-16T11:05:37.396Z,75
2018-12-16T11:06:40.449Z,75
2018-12-16T11:07:43.879Z,75
2018-12-16T11:08:46.430Z,76
2018-12-16T11:09:49.802Z,76
2018-12-16T11:10:52.223Z,76
2018-12-16T11:11:54.630Z,76
2018-12-16T11:12:56.852Z,76
2018-12-16T11:13:59.542Z,76
2018-12-16T11:15:02.005Z,76
2018-12-16T11:16:04.086Z,76
2018-12-16T11:17:06.461Z,75
2018-12-16T11:18:08.522Z,76
2018-12-16T11:19:11.016Z,75
2018-12-16T11:20:13.878Z,75
2018-12-16T11:21:16.371Z,75
2018-12-16T11:22:18.911Z,76
2018-12-16T11:23:21.985Z,76
2018-12-16T11:24:24.739Z,75
2018-12-16T11:25:28.391Z,75
2018-12-16T11:26:31.099Z,75
2018-12-16T11:27:34.045Z,75
2018-12-16T11:28:36.910Z,75
2018-12-16T11:29:39.172Z,75
2018-12-16T11:30:42.282Z,75
2018-12-16T11:31:44.826Z,76
2018-12-16T11:32:48.164Z,75
2018-12-16T11:33:51.322Z,75
2018-12-16T11:34:54.881Z,75
2018-12-16T11:35:59.237Z,75
2018-12-16T11:37:01.900Z,75
2018-12-16T11:38:04.359Z,75
2018-12-16T11:39:07.036Z,75
2018-12-16T11:40:10.681Z,75
2018-12-16T11:41:14.660Z,75
2018-12-16T11:42:18.019Z,75
2018-12-16T11:43:20.991Z,75
2018-12-16T11:44:23.236Z,75
2018-12-16T11:45:26.470Z,75
2018-12-16T11:46:28.768Z,75
2018-12-16T11:47:31.556Z,75
2018-12-16T11:48:34.561Z,75
2018-12-16T11:49:37.828Z,75
2018-12-16T11:50:41.242Z,75
2018-12-16T11:51:43.901Z,75
2018-12-16T11:52:46.699Z,75
2018-12-16T11:53:50.784Z,75
2018-12-16T11:54:54.623Z,75
2018-12-16T11:55:57.262Z,75
2018-12-16T11:57:00.795Z,75
2018-12-16T11:58:03.658Z,75
2018-12-16T11:59:06.066Z,75
2018-12-16T12:00:09.018Z,75
2018-12-16T12:01:11.581Z,75
2018-12-16T12:02:15.046Z,75
2018-12-16T12:03:20.383Z,75
2018-12-16T12:04:24.445Z,75
2018-12-16T12:05:27.845Z,75
2018-12-16T12:06:30.035Z,75
2018-12-16T12:07:32.169Z,75
2018-12-16T12:08:34.424Z,75
2018-12-16T12:09:36.568Z,75
2018-12-16T12:10:39.035Z,75
2018-12-16T12:11:42.102Z,75
2018-12-16T12:12:45.029Z,75
2018-12-16T12:13:48.619Z,75
2018-12-16T12:14:50.882Z,75
2018-12-16T12:15:53.172Z,75
2018-12-16T12:16:55.731Z,75
2018-12-16T12:17:58.258Z,75
2018-12-16T12:19:00.957Z,75
2018-12-16T12:20:03.649Z,75
2018-12-16T12:21:05.723Z,74
2018-12-16T12:22:08.359Z,74
2018-12-16T12:23:10.930Z,74
2018-12-16T12:24:13.032Z,74
2018-12-16T12:25:20.869Z,75
2018-12-16T12:26:23.263Z,75
2018-12-16T12:27:25.306Z,75
2018-12-16T12:28:27.486Z,75
2018-12-16T12:29:29.947Z,75
2018-12-16T12:30:32.203Z,75
2018-12-16T12:31:34.431Z,75
2018-12-16T12:32:36.511Z,75
2018-12-16T12:33:39.294Z,75
2018-12-16T12:34:41.841Z,75
2018-12-16T12:35:44.253Z,75
2018-12-16T12:36:47.585Z,75
2018-12-16T12:37:49.985Z,75
2018-12-16T12:38:53.556Z,75
2018-12-16T12:39:55.846Z,75
2018-12-16T12:40:58.798Z,75
2018-12-16T12:42:01.512Z,75
2018-12-16T12:43:04.183Z,75
2018-12-16T12:44:06.700Z,75
2018-12-16T12:45:08.974Z,75
2018-12-16T12:46:11.893Z,75
2018-12-16T12:47:14.482Z,76
2018-12-16T12:48:17.321Z,76
2018-12-16T12:49:19.917Z,76
2018-12-16T12:50:22.918Z,76
2018-12-16T12:51:25.186Z,76
2018-12-16T12:52:27.668Z,75
2018-12-16T12:53:31.738Z,76
2018-12-16T12:54:34.296Z,76
2018-12-16T12:55:36.719Z,76
2018-12-16T12:56:39.654Z,76
2018-12-16T12:57:42.210Z,76
2018-12-16T12:58:45.675Z,76
2018-12-16T12:59:48.552Z,76
2018-12-16T13:00:51.735Z,76
2018-12-16T13:01:54.327Z,76
2018-12-16T13:02:56.674Z,76
2018-12-16T13:03:59.630Z,76
2018-12-16T13:05:02.235Z,76
2018-12-16T13:06:04.860Z,76
2018-12-16T13:07:07.800Z,76
2018-12-16T13:08:10.528Z,76
2018-12-16T13:09:13.113Z,76
2018-12-16T13:10:16.833Z,76
2018-12-16T13:11:19.337Z,76
2018-12-16T13:12:21.660Z,76
2018-12-16T13:13:24.928Z,76
2018-12-16T13:14:27.989Z,77
2018-12-16T13:15:31.236Z,77
2018-12-16T13:16:33.639Z,77
2018-12-16T13:17:36.092Z,77
2018-12-16T13:18:38.644Z,78
2018-12-16T13:19:41.622Z,77
2018-12-16T13:20:44.635Z,77
2018-12-16T13:21:46.939Z,77
2018-12-16T13:22:49.790Z,77
2018-12-16T13:23:52.372Z,77
2018-12-16T13:24:55.137Z,77
2018-12-16T13:25:58.280Z,77
2018-12-16T13:27:01.242Z,77
2018-12-16T13:28:03.828Z,77
2018-12-16T13:29:06.365Z,77
2018-12-16T13:30:08.476Z,77
2018-12-16T13:31:10.907Z,78
2018-12-16T13:32:14.385Z,78
2018-12-16T13:33:17.425Z,78
2018-12-16T13:34:19.995Z,78
2018-12-16T13:35:22.493Z,78
2018-12-16T13:36:25.510Z,78
2018-12-16T13:37:29.038Z,78
2018-12-16T13:38:31.443Z,78
2018-12-16T13:39:33.867Z,78
2018-12-16T13:40:36.781Z,78
2018-12-16T13:41:40.407Z,78
2018-12-16T13:42:42.853Z,78
2018-12-16T13:43:46.046Z,79
2018-12-16T13:44:48.506Z,79
2018-12-16T13:45:50.584Z,79
2018-12-16T13:46:52.919Z,79
2018-12-16T13:47:56.010Z,79
2018-12-16T13:48:58.465Z,79
2018-12-16T13:50:01.633Z,79
2018-12-16T13:51:03.848Z,79
2018-12-16T13:52:06.696Z,79
2018-12-16T13:53:09.582Z,79
2018-12-16T13:54:12.008Z,79
2018-12-16T13:55:14.175Z,79
2018-12-16T13:56:16.531Z,79
2018-12-16T13:57:19.048Z,79
2018-12-16T13:58:21.745Z,79
2018-12-16T13:59:23.854Z,79
2018-12-16T14:00:26.571Z,80
2018-12-16T14:01:29.928Z,79
2018-12-16T14:02:32.750Z,80
2018-12-16T14:03:35.915Z,80
2018-12-16T14:04:38.627Z,80
2018-12-16T14:05:47.989Z,80
2018-12-16T14:06:50.842Z,80
2018-12-16T14:07:54.274Z,80
2018-12-16T14:08:56.806Z,80
2018-12-16T14:09:59.786Z,80
2018-12-16T14:11:01.876Z,80
2018-12-16T14:12:04.071Z,80
2018-12-16T14:13:06.536Z,80
2018-12-16T14:14:08.773Z,80
2018-12-16T14:15:11.695Z,81
2018-12-16T14:16:15.098Z,81
2018-12-16T14:17:18.678Z,81
2018-12-16T14:18:22.247Z,81
2018-12-16T14:19:26.262Z,81
2018-12-16T14:20:28.655Z,81
2018-12-16T14:21:31.804Z,81
2018-12-16T14:22:34.770Z,81
2018-12-16T14:23:37.432Z,81
2018-12-16T14:24:39.789Z,81
2018-12-16T14:25:49.081Z,81
2018-12-16T14:26:51.397Z,81
2018-12-16T14:27:54.211Z,81
2018-12-16T14:28:56.534Z,81
2018-12-16T14:29:58.837Z,81
2018-12-16T14:31:01.316Z,81
2018-12-16T14:32:04.489Z,81
2018-12-16T14:33:06.799Z,81
2018-12-16T14:34:09.152Z,81
2018-12-16T14:35:11.938Z,81
2018-12-16T14:36:14.801Z,81
2018-12-16T14:37:17.170Z,82
2018-12-16T14:38:19.595Z,82
2018-12-16T14:39:22.037Z,82
2018-12-16T14:40:24.753Z,82